Time;durP1;ratioP1;P1;durP2;ratioP2;P2;SDS_P1;SDS_P2;PMS_P1;PMS_P2;Temp;Humidity;BMP_temperature;BMP_pressure;BME280_temperature;BME280_humidity;BME280_pressure;Samples;Min_cycle;Max_cycle;Signal;HPM_P1;HPM_P2
2023/01/29 00:01:11;;;;;;;14.97;9.37;;;;;;;;;;4973342;28;20247;-90
2023/01/29 00:03:38;;;;;;;12.43;8.53;;;;;;;;;;4973507;28;20246;-90
2023/01/29 00:06:07;;;;;;;13.33;9.07;;;;;;;;;;4973189;28;20248;-90
2023/01/29 00:08:34;;;;;;;13.27;8.57;;;;;;;;;;4973505;28;20234;-90
2023/01/29 00:11:02;;;;;;;11.57;8.80;;;;;;;;;;4972731;28;20633;-91
2023/01/29 00:13:29;;;;;;;12.90;9.47;;;;;;;;;;4973056;28;20255;-90
2023/01/29 00:15:56;;;;;;;15.13;9.57;;;;;;;;;;4972808;28;20613;-90
2023/01/29 00:18:24;;;;;;;11.13;8.57;;;;;;;;;;4973196;28;20201;-90
2023/01/29 00:20:51;;;;;;;12.80;9.60;;;;;;;;;;4972919;28;20711;-90
2023/01/29 00:23:20;;;;;;;13.03;8.30;;;;;;;;;;4973000;28;20699;-90
2023/01/29 00:25:47;;;;;;;12.83;8.90;;;;;;;;;;4972780;28;20227;-91
2023/01/29 00:28:14;;;;;;;10.13;8.47;;;;;;;;;;4973220;28;20223;-90
2023/01/29 00:30:42;;;;;;;13.10;8.47;;;;;;;;;;4972990;28;20239;-90
2023/01/29 00:33:10;;;;;;;14.10;8.83;;;;;;;;;;4972823;28;20599;-90
2023/01/29 00:35:39;;;;;;;11.70;9.00;;;;;;;;;;4972572;28;20240;-90
2023/01/29 00:38:07;;;;;;;13.77;8.73;;;;;;;;;;4973394;28;20215;-90
2023/01/29 00:46:05;;;;;;;12.73;8.50;;;;;;;;;;4972841;28;20342;-90
2023/01/29 00:48:32;;;;;;;11.33;8.30;;;;;;;;;;4973426;28;20269;-90
2023/01/29 00:50:59;;;;;;;11.63;8.57;;;;;;;;;;4974971;28;20230;-90
2023/01/29 00:53:26;;;;;;;12.60;8.63;;;;;;;;;;4991266;28;20224;-90
2023/01/29 00:55:54;;;;;;;11.63;8.20;;;;;;;;;;4989789;28;20306;-90
2023/01/29 00:58:27;;;;;;;11.33;7.97;;;;;;;;;;4992172;28;20219;-90
2023/01/29 01:00:54;;;;;;;12.90;8.60;;;;;;;;;;4989639;28;20258;-90
2023/01/29 01:03:20;;;;;;;10.07;7.63;;;;;;;;;;4989243;28;20235;-90
2023/01/29 01:05:47;;;;;;;12.70;8.33;;;;;;;;;;4989381;28;20235;-90
2023/01/29 01:11:07;;;;;;;10.80;8.43;;;;;;;;;;4972094;28;20786;-90
2023/01/29 01:13:35;;;;;;;15.17;9.43;;;;;;;;;;4972534;28;20238;-90
2023/01/29 01:16:02;;;;;;;12.50;8.10;;;;;;;;;;4972078;28;20245;-91
2023/01/29 01:18:30;;;;;;;11.87;7.50;;;;;;;;;;4972620;28;20215;-89
2023/01/29 01:20:58;;;;;;;16.30;8.93;;;;;;;;;;4971756;28;20239;-90
2023/01/29 01:23:26;;;;;;;11.33;8.67;;;;;;;;;;4972136;28;20239;-90
2023/01/29 01:25:54;;;;;;;11.90;8.57;;;;;;;;;;4972031;28;20239;-91
2023/01/29 01:28:22;;;;;;;10.87;9.03;;;;;;;;;;4972426;28;20208;-91
2023/01/29 01:30:49;;;;;;;13.47;8.70;;;;;;;;;;4972122;28;20251;-91
2023/01/29 01:33:16;;;;;;;13.30;8.77;;;;;;;;;;4971851;28;20258;-91
2023/01/29 01:35:43;;;;;;;13.20;8.83;;;;;;;;;;4971524;28;20240;-91
2023/01/29 01:38:11;;;;;;;12.63;8.87;;;;;;;;;;4972352;28;20698;-90
2023/01/29 01:40:44;;;;;;;13.50;8.47;;;;;;;;;;4971556;28;20251;-90
2023/01/29 01:43:11;;;;;;;10.30;7.67;;;;;;;;;;4972152;28;20232;-90
2023/01/29 01:45:41;;;;;;;12.87;8.97;;;;;;;;;;4971984;28;20242;-91
2023/01/29 01:48:11;;;;;;;13.07;8.87;;;;;;;;;;4972266;28;20204;-90
2023/01/29 01:50:41;;;;;;;11.33;8.77;;;;;;;;;;4971731;28;20243;-91
2023/01/29 01:53:10;;;;;;;12.67;8.30;;;;;;;;;;4971590;28;20727;-90
2023/01/29 01:55:38;;;;;;;10.57;7.90;;;;;;;;;;4971622;28;20239;-91
2023/01/29 01:58:09;;;;;;;12.23;8.60;;;;;;;;;;4970280;28;20605;-90
2023/01/29 02:00:36;;;;;;;12.00;8.00;;;;;;;;;;4973132;28;20655;-90
2023/01/29 02:11:23;;;;;;;13.13;8.70;;;;;;;;;;4974910;28;20290;-91
2023/01/29 02:13:52;;;;;;;12.10;7.43;;;;;;;;;;4975339;28;20203;-91
2023/01/29 02:16:19;;;;;;;9.53;7.50;;;;;;;;;;4974819;28;20274;-90
2023/01/29 02:18:48;;;;;;;10.70;8.07;;;;;;;;;;4975224;28;20208;-91
2023/01/29 02:21:30;;;;;;;11.17;7.10;;;;;;;;;;4974448;28;20236;-90
2023/01/29 02:24:12;;;;;;;10.80;8.20;;;;;;;;;;4986395;28;20748;-90
2023/01/29 02:26:50;;;;;;;12.97;7.70;;;;;;;;;;4974766;28;20222;-91
2023/01/29 02:29:24;;;;;;;10.87;8.20;;;;;;;;;;4976138;28;20221;-89
2023/01/29 02:31:51;;;;;;;9.43;6.97;;;;;;;;;;4996474;23;20249;31
2023/01/29 02:34:21;;;;;;;11.20;7.90;;;;;;;;;;4998298;28;20241;-84
2023/01/29 02:36:51;;;;;;;14.03;8.20;;;;;;;;;;5010092;28;20217;-85
2023/01/29 02:39:23;;;;;;;10.77;8.07;;;;;;;;;;5011585;28;20210;-84
2023/01/29 02:41:53;;;;;;;13.73;8.30;;;;;;;;;;5012357;28;20196;-84
2023/01/29 02:44:24;;;;;;;12.40;8.37;;;;;;;;;;5011592;28;20242;-84
2023/01/29 02:46:54;;;;;;;12.53;9.37;;;;;;;;;;5012006;28;20215;-84
2023/01/29 02:49:23;;;;;;;12.33;9.10;;;;;;;;;;5011894;28;20242;-84
2023/01/29 02:51:54;;;;;;;13.03;9.60;;;;;;;;;;5008895;28;20207;-84
2023/01/29 02:54:23;;;;;;;13.57;8.90;;;;;;;;;;4991465;28;20242;-85
2023/01/29 02:56:53;;;;;;;13.27;8.60;;;;;;;;;;4992007;28;20203;-84
2023/01/29 02:59:25;;;;;;;21.83;8.33;;;;;;;;;;4991410;28;20246;-84
2023/01/29 03:01:55;;;;;;;12.27;8.77;;;;;;;;;;4992078;28;20295;-84
2023/01/29 03:04:24;;;;;;;11.27;8.33;;;;;;;;;;4991611;28;20247;-84
2023/01/29 03:06:54;;;;;;;10.93;8.17;;;;;;;;;;4992039;28;20227;-84
2023/01/29 03:09:23;;;;;;;9.73;7.97;;;;;;;;;;4991310;28;20242;-84
2023/01/29 03:11:52;;;;;;;12.43;9.00;;;;;;;;;;4991818;28;20588;-84
2023/01/29 03:14:23;;;;;;;12.23;8.47;;;;;;;;;;4991429;28;20231;-84
2023/01/29 03:16:50;;;;;;;11.13;8.43;;;;;;;;;;4991977;28;20212;-84
2023/01/29 03:19:20;;;;;;;11.80;8.57;;;;;;;;;;4991492;28;20229;-84
2023/01/29 03:21:57;;;;;;;11.73;8.80;;;;;;;;;;4992419;28;20205;-84
2023/01/29 03:32:48;;;;;;;11.07;7.97;;;;;;;;;;4991233;28;20717;-84
2023/01/29 03:35:35;;;;;;;13.20;8.73;;;;;;;;;;4991225;28;20239;-85
2023/01/29 03:38:03;;;;;;;11.67;8.23;;;;;;;;;;4991571;28;20751;-84
2023/01/29 03:40:35;;;;;;;11.30;8.20;;;;;;;;;;4991161;28;20818;-84
2023/01/29 03:43:09;;;;;;;10.67;7.63;;;;;;;;;;4991379;28;20239;-84
2023/01/29 03:45:41;;;;;;;10.73;7.93;;;;;;;;;;4975966;28;20258;-84
2023/01/29 03:48:11;;;;;;;9.17;7.37;;;;;;;;;;4991576;28;20280;-84
2023/01/29 03:50:46;;;;;;;7.83;6.63;;;;;;;;;;4990823;28;20714;-85
2023/01/29 03:53:18;;;;;;;11.20;7.93;;;;;;;;;;4990884;28;20234;-84
2023/01/29 03:55:54;;;;;;;9.03;7.20;;;;;;;;;;4990855;28;20241;-84
2023/01/29 03:58:24;;;;;;;8.67;6.80;;;;;;;;;;4975658;28;20240;-84
2023/01/29 04:00:53;;;;;;;9.23;6.50;;;;;;;;;;4990923;28;20253;-84
2023/01/29 04:03:22;;;;;;;6.17;5.53;;;;;;;;;;4990645;28;20235;-84
2023/01/29 04:05:57;;;;;;;7.87;6.63;;;;;;;;;;4990360;28;20687;-84
2023/01/29 04:08:27;;;;;;;9.03;7.13;;;;;;;;;;4994993;28;20634;-84
2023/01/29 04:10:55;;;;;;;9.40;5.80;;;;;;;;;;4991557;28;20244;-84
2023/01/29 04:13:24;;;;;;;8.03;6.00;;;;;;;;;;4990800;28;20703;-84
2023/01/29 04:15:53;;;;;;;11.73;6.93;;;;;;;;;;4991002;28;20247;-84
2023/01/29 04:18:20;;;;;;;7.40;6.30;;;;;;;;;;4991357;28;20210;-84
2023/01/29 04:20:48;;;;;;;8.07;6.63;;;;;;;;;;4991116;28;20317;-84
2023/01/29 04:23:22;;;;;;;8.33;6.67;;;;;;;;;;4990037;28;20707;-84
2023/01/29 04:25:54;;;;;;;6.37;5.77;;;;;;;;;;4990749;28;20239;-84
2023/01/29 04:28:23;;;;;;;8.40;6.77;;;;;;;;;;4991154;28;20242;-84
2023/01/29 04:30:54;;;;;;;8.33;7.10;;;;;;;;;;4990633;28;20244;-84
2023/01/29 04:33:29;;;;;;;8.43;7.03;;;;;;;;;;4990795;28;20226;-85
2023/01/29 04:36:06;;;;;;;8.27;6.13;;;;;;;;;;4990582;28;20249;-84
2023/01/29 04:38:43;;;;;;;7.33;6.50;;;;;;;;;;4990865;28;20209;-84
2023/01/29 04:41:14;;;;;;;10.83;7.13;;;;;;;;;;4990292;28;20256;-85
2023/01/29 04:43:44;;;;;;;10.00;7.13;;;;;;;;;;4990453;28;20698;-84
2023/01/29 04:46:16;;;;;;;9.37;7.20;;;;;;;;;;4990421;28;20241;-85
2023/01/29 04:48:47;;;;;;;8.37;7.20;;;;;;;;;;4990937;28;20210;-84
2023/01/29 04:51:18;;;;;;;10.47;7.47;;;;;;;;;;4990091;28;20257;-84
2023/01/29 04:53:51;;;;;;;9.00;7.87;;;;;;;;;;4990199;28;20226;-84
2023/01/29 04:56:21;;;;;;;12.47;8.27;;;;;;;;;;4990076;28;20312;-84
2023/01/29 04:58:51;;;;;;;9.57;8.07;;;;;;;;;;4990988;28;20196;-84
2023/01/29 05:01:18;;;;;;;7.77;7.03;;;;;;;;;;4991953;28;20260;-84
2023/01/29 05:03:48;;;;;;;8.63;7.27;;;;;;;;;;4990310;28;20233;-84
2023/01/29 05:06:16;;;;;;;9.23;7.53;;;;;;;;;;4989863;28;20720;-84
2023/01/29 05:08:43;;;;;;;8.83;7.50;;;;;;;;;;4990534;28;20207;-84
2023/01/29 05:11:13;;;;;;;11.57;8.07;;;;;;;;;;4989812;28;20238;-84
2023/01/29 05:13:41;;;;;;;10.03;7.37;;;;;;;;;;4990170;28;20224;-84
2023/01/29 05:16:10;;;;;;;10.13;7.40;;;;;;;;;;4989647;28;20242;-84
2023/01/29 05:18:37;;;;;;;10.17;7.43;;;;;;;;;;4989659;28;20680;-84
2023/01/29 05:21:07;;;;;;;9.73;6.80;;;;;;;;;;4995972;28;20234;-85
2023/01/29 05:23:35;;;;;;;9.67;7.10;;;;;;;;;;4997915;28;20234;-84
2023/01/29 05:26:02;;;;;;;7.27;6.30;;;;;;;;;;4989520;28;20241;-84
2023/01/29 05:28:29;;;;;;;8.67;6.77;;;;;;;;;;4990216;28;20666;-84
2023/01/29 05:30:57;;;;;;;8.63;6.83;;;;;;;;;;4989670;28;20235;-84
2023/01/29 05:33:25;;;;;;;8.43;6.90;;;;;;;;;;4989251;28;20238;-84
2023/01/29 05:35:52;;;;;;;9.43;6.87;;;;;;;;;;4988459;28;20239;-84
2023/01/29 05:38:19;;;;;;;7.10;6.40;;;;;;;;;;4989814;28;20202;-84
2023/01/29 05:40:47;;;;;;;7.20;6.30;;;;;;;;;;4989356;28;20269;-84
2023/01/29 05:43:15;;;;;;;9.23;6.97;;;;;;;;;;4989572;28;20225;-84
2023/01/29 05:45:44;;;;;;;8.80;6.90;;;;;;;;;;4989386;28;20245;-84
2023/01/29 05:48:11;;;;;;;9.40;6.33;;;;;;;;;;4989480;28;20694;-84
2023/01/29 05:50:38;;;;;;;8.90;6.73;;;;;;;;;;4988819;28;20242;-84
2023/01/29 05:53:05;;;;;;;7.33;6.63;;;;;;;;;;4989495;28;20227;-84
2023/01/29 05:55:32;;;;;;;7.37;6.43;;;;;;;;;;4988882;28;20234;-85
2023/01/29 05:57:59;;;;;;;10.10;7.03;;;;;;;;;;4989680;28;20682;-84
2023/01/29 06:00:27;;;;;;;6.53;5.93;;;;;;;;;;4989079;28;20238;-84
2023/01/29 06:02:55;;;;;;;8.63;5.77;;;;;;;;;;4989795;28;20257;-85
2023/01/29 06:05:22;;;;;;;7.97;6.13;;;;;;;;;;4989442;28;20279;-84
2023/01/29 06:07:49;;;;;;;7.53;6.73;;;;;;;;;;4989598;28;20214;-84
2023/01/29 06:10:17;;;;;;;9.03;6.73;;;;;;;;;;4988902;28;20235;-84
2023/01/29 06:12:45;;;;;;;6.60;6.00;;;;;;;;;;4989490;28;20230;-84
2023/01/29 06:15:14;;;;;;;8.27;5.93;;;;;;;;;;4989326;28;20238;-84
2023/01/29 06:17:41;;;;;;;9.10;6.37;;;;;;;;;;4989231;28;20675;-84
2023/01/29 06:20:11;;;;;;;6.97;6.27;;;;;;;;;;4988870;28;20760;-84
2023/01/29 06:22:38;;;;;;;8.80;6.30;;;;;;;;;;4989474;28;20238;-84
2023/01/29 06:25:05;;;;;;;9.07;6.70;;;;;;;;;;4989050;28;20265;-84
2023/01/29 06:27:32;;;;;;;9.53;6.90;;;;;;;;;;4989619;28;20211;-84
2023/01/29 06:29:59;;;;;;;8.30;6.73;;;;;;;;;;4988973;28;20250;-84
2023/01/29 06:32:26;;;;;;;6.80;6.10;;;;;;;;;;4988861;28;20238;-84
2023/01/29 06:34:53;;;;;;;9.40;6.13;;;;;;;;;;4989388;28;20238;-84
2023/01/29 06:37:22;;;;;;;8.77;5.93;;;;;;;;;;4989213;28;20200;-84
2023/01/29 06:39:49;;;;;;;8.37;6.37;;;;;;;;;;4988723;28;20243;-84
2023/01/29 06:42:16;;;;;;;7.70;6.70;;;;;;;;;;4989024;28;20240;-84
2023/01/29 06:44:43;;;;;;;8.43;7.07;;;;;;;;;;4988718;28;20242;-85
2023/01/29 06:47:10;;;;;;;7.83;6.87;;;;;;;;;;4991623;28;20212;-84
2023/01/29 06:49:37;;;;;;;9.40;7.47;;;;;;;;;;4991993;28;20320;-84
2023/01/29 06:52:04;;;;;;;11.13;8.27;;;;;;;;;;4992075;28;20215;-84
2023/01/29 06:54:32;;;;;;;12.10;8.20;;;;;;;;;;4992155;28;20242;-84
2023/01/29 06:57:00;;;;;;;11.03;7.90;;;;;;;;;;4992514;28;20198;-81
2023/01/29 06:59:27;;;;;;;13.93;7.77;;;;;;;;;;4991739;28;20238;-81
2023/01/29 07:01:54;;;;;;;10.30;7.97;;;;;;;;;;4992395;28;20205;-84
2023/01/29 07:04:21;;;;;;;11.20;6.93;;;;;;;;;;4992291;28;20618;-85
2023/01/29 07:06:48;;;;;;;13.47;8.63;;;;;;;;;;4993107;28;20205;-84
2023/01/29 07:09:15;;;;;;;11.17;8.70;;;;;;;;;;4991554;28;20240;-84
2023/01/29 07:11:43;;;;;;;10.77;8.23;;;;;;;;;;4992257;28;20206;-84
2023/01/29 07:14:10;;;;;;;10.27;7.87;;;;;;;;;;4991405;28;20252;-85
2023/01/29 07:16:37;;;;;;;10.23;8.17;;;;;;;;;;4992187;28;20207;-84
2023/01/29 07:19:05;;;;;;;12.67;9.00;;;;;;;;;;4991800;28;20211;-84
2023/01/29 07:21:32;;;;;;;13.50;8.77;;;;;;;;;;4991524;28;20210;-84
2023/01/29 07:23:59;;;;;;;19.70;9.67;;;;;;;;;;4991455;28;20235;-84
2023/01/29 07:26:26;;;;;;;7.50;6.50;;;;;;;;;;4992018;28;20206;-84
2023/01/29 07:28:54;;;;;;;8.77;7.40;;;;;;;;;;4991780;28;20205;-84
2023/01/29 07:31:22;;;;;;;7.80;7.00;;;;;;;;;;4991307;28;20256;-84
2023/01/29 07:33:49;;;;;;;7.47;6.33;;;;;;;;;;4990509;28;20242;-85
2023/01/29 07:36:16;;;;;;;7.20;6.40;;;;;;;;;;4975521;28;20241;-84
2023/01/29 07:38:43;;;;;;;8.63;6.70;;;;;;;;;;4987654;28;20218;-86
2023/01/29 07:41:11;;;;;;;8.67;7.57;;;;;;;;;;4991842;28;20257;-86
2023/01/29 07:43:38;;;;;;;10.30;7.23;;;;;;;;;;4989100;28;20227;-85
2023/01/29 07:46:07;;;;;;;9.83;7.63;;;;;;;;;;4991361;28;20245;-85
2023/01/29 07:48:34;;;;;;;7.40;6.67;;;;;;;;;;4991634;28;20565;-85
2023/01/29 07:51:04;;;;;;;9.30;7.37;;;;;;;;;;4990866;28;20240;-84
2023/01/29 07:53:31;;;;;;;10.73;8.07;;;;;;;;;;4988500;28;20225;-84
2023/01/29 07:55:58;;;;;;;10.87;8.40;;;;;;;;;;4993294;28;20249;-85
2023/01/29 07:58:25;;;;;;;10.07;7.67;;;;;;;;;;4992177;28;20212;-85
2023/01/29 08:00:52;;;;;;;12.20;7.60;;;;;;;;;;4991416;28;20238;-85
2023/01/29 08:03:21;;;;;;;10.67;8.17;;;;;;;;;;4991082;28;20229;-85
2023/01/29 08:05:48;;;;;;;8.70;7.23;;;;;;;;;;4990847;28;20690;-86
2023/01/29 08:08:15;;;;;;;11.20;8.57;;;;;;;;;;4991941;28;20242;-83
2023/01/29 08:10:43;;;;;;;10.23;7.30;;;;;;;;;;4990901;28;20238;-84
2023/01/29 08:13:10;;;;;;;7.13;6.43;;;;;;;;;;4991235;28;20227;-85
2023/01/29 08:15:38;;;;;;;8.90;6.60;;;;;;;;;;4990880;28;20241;-86
2023/01/29 08:18:05;;;;;;;10.70;8.07;;;;;;;;;;4992016;28;20210;-86
2023/01/29 08:20:33;;;;;;;10.00;7.70;;;;;;;;;;4992975;28;20235;-86
2023/01/29 08:23:01;;;;;;;10.73;6.90;;;;;;;;;;4991103;28;20227;-85
2023/01/29 08:25:28;;;;;;;6.67;6.07;;;;;;;;;;4990838;28;20273;-85
2023/01/29 08:27:57;;;;;;;8.27;7.10;;;;;;;;;;4991979;28;20695;-85
2023/01/29 08:30:24;;;;;;;8.43;6.87;;;;;;;;;;4991060;28;20269;-85
2023/01/29 08:32:51;;;;;;;7.33;6.17;;;;;;;;;;5003704;23;20275;-91
2023/01/29 08:35:18;;;;;;;7.97;6.47;;;;;;;;;;4960039;28;20234;-89
2023/01/29 08:37:52;;;;;;;8.23;6.30;;;;;;;;;;4972911;28;20212;-90
2023/01/29 08:40:19;;;;;;;11.93;7.10;;;;;;;;;;4972332;28;20241;-88
2023/01/29 08:42:46;;;;;;;8.03;7.07;;;;;;;;;;4972175;28;20230;-88
2023/01/29 08:45:14;;;;;;;8.60;7.40;;;;;;;;;;4971830;28;20248;-87
2023/01/29 08:47:45;;;;;;;8.90;7.93;;;;;;;;;;4969791;28;20711;-87
2023/01/29 08:50:12;;;;;;;10.83;8.40;;;;;;;;;;4953234;28;20243;-89
2023/01/29 08:52:39;;;;;;;10.07;8.33;;;;;;;;;;4953050;28;20228;-89
2023/01/29 08:55:08;;;;;;;9.77;7.63;;;;;;;;;;4952780;28;20244;-86
2023/01/29 08:57:37;;;;;;;9.63;7.50;;;;;;;;;;4952943;29;20220;-89
2023/01/29 09:00:04;;;;;;;7.87;6.97;;;;;;;;;;4952981;28;20243;-89
2023/01/29 09:02:32;;;;;;;9.33;7.53;;;;;;;;;;4953310;28;20246;-89
2023/01/29 09:04:59;;;;;;;10.97;7.53;;;;;;;;;;4952715;28;20590;-89
2023/01/29 09:07:27;;;;;;;12.80;7.00;;;;;;;;;;4953591;28;20224;-88
2023/01/29 09:09:54;;;;;;;10.07;7.70;;;;;;;;;;4952595;28;20243;-90
2023/01/29 09:12:23;;;;;;;8.23;7.30;;;;;;;;;;4952715;28;20225;-89
2023/01/29 09:14:57;;;;;;;10.50;7.37;;;;;;;;;;4952702;28;20255;-89
2023/01/29 09:17:24;;;;;;;9.53;7.07;;;;;;;;;;4953561;29;20230;-89
2023/01/29 09:19:52;;;;;;;10.70;7.27;;;;;;;;;;4953024;28;20635;-89
2023/01/29 09:22:19;;;;;;;8.27;6.93;;;;;;;;;;4952875;28;20205;-90
2023/01/29 09:24:46;;;;;;;8.07;6.67;;;;;;;;;;4952645;28;20232;-90
2023/01/29 09:27:14;;;;;;;8.27;6.53;;;;;;;;;;4952984;29;20210;-90
2023/01/29 09:29:42;;;;;;;7.53;6.73;;;;;;;;;;4952733;28;20248;-88
2023/01/29 09:32:09;;;;;;;7.40;6.70;;;;;;;;;;4953115;29;20201;-87
2023/01/29 09:34:36;;;;;;;11.37;7.50;;;;;;;;;;4951965;28;20320;-86
2023/01/29 09:37:03;;;;;;;7.20;6.50;;;;;;;;;;4951221;28;20669;-86
2023/01/29 09:39:30;;;;;;;8.40;7.17;;;;;;;;;;5029114;28;20228;-86
2023/01/29 09:42:01;;;;;;;7.57;6.33;;;;;;;;;;5053121;28;20206;-87
2023/01/29 09:44:34;;;;;;;7.70;6.10;;;;;;;;;;4974079;28;20247;-87
2023/01/29 09:47:03;;;;;;;11.83;7.00;;;;;;;;;;4977588;28;20228;-87
2023/01/29 09:49:33;;;;;;;6.90;6.20;;;;;;;;;;5031619;28;20240;-87
2023/01/29 09:52:03;;;;;;;11.33;6.90;;;;;;;;;;5053873;28;20216;-87
2023/01/29 09:54:32;;;;;;;7.23;6.47;;;;;;;;;;4956561;28;20236;-86
2023/01/29 09:57:01;;;;;;;10.60;6.63;;;;;;;;;;4951872;28;20212;-88
2023/01/29 09:59:30;;;;;;;7.23;6.37;;;;;;;;;;5017642;28;20237;-87
2023/01/29 10:02:03;;;;;;;10.83;7.70;;;;;;;;;;4988168;28;20555;-87
2023/01/29 10:04:49;;;;;;;7.97;7.07;;;;;;;;;;4959328;28;20245;-87
2023/01/29 10:07:22;;;;;;;8.53;7.43;;;;;;;;;;4951931;29;20201;-87
2023/01/29 10:10:08;;;;;;;7.97;7.17;;;;;;;;;;5027517;28;20237;-86
2023/01/29 10:12:51;;;;;;;8.80;7.60;;;;;;;;;;5052114;28;20242;-87
2023/01/29 10:15:24;;;;;;;7.60;6.90;;;;;;;;;;4963150;28;20709;-87
2023/01/29 10:17:58;;;;;;;7.73;6.87;;;;;;;;;;4952827;29;20201;-86
2023/01/29 10:20:32;;;;;;;7.70;6.90;;;;;;;;;;5046555;28;20245;-87
2023/01/29 10:23:07;;;;;;;8.63;6.87;;;;;;;;;;5056669;28;20240;-86
2023/01/29 10:25:37;;;;;;;7.23;6.40;;;;;;;;;;4955441;28;20236;-86
2023/01/29 10:28:14;;;;;;;8.83;6.57;;;;;;;;;;4970917;28;20679;-87
2023/01/29 10:30:47;;;;;;;7.37;6.57;;;;;;;;;;4975803;28;20242;-86
2023/01/29 10:33:18;;;;;;;7.30;6.60;;;;;;;;;;5051521;28;20229;-87
2023/01/29 10:35:48;;;;;;;7.50;6.80;;;;;;;;;;5035288;28;20302;-87
2023/01/29 10:38:21;;;;;;;8.17;7.10;;;;;;;;;;4955491;29;20482;-87
2023/01/29 10:40:52;;;;;;;8.77;7.43;;;;;;;;;;4954799;28;20244;-87
2023/01/29 10:43:22;;;;;;;8.27;7.03;;;;;;;;;;5047863;28;20592;-87
2023/01/29 10:45:53;;;;;;;8.13;6.90;;;;;;;;;;5056182;28;20320;-86
2023/01/29 10:48:33;;;;;;;7.23;6.60;;;;;;;;;;5056544;28;20190;-87
2023/01/29 10:51:06;;;;;;;11.70;7.20;;;;;;;;;;5055349;28;20261;-87
2023/01/29 10:53:41;;;;;;;7.73;7.00;;;;;;;;;;5055797;28;20214;-86
2023/01/29 10:56:13;;;;;;;8.37;7.40;;;;;;;;;;5046206;28;20307;-85
2023/01/29 10:58:43;;;;;;;8.57;7.77;;;;;;;;;;4954095;29;20197;-86
2023/01/29 11:01:11;;;;;;;9.63;7.10;;;;;;;;;;4954455;28;20237;-85
2023/01/29 11:03:39;;;;;;;8.70;6.97;;;;;;;;;;4976994;28;20221;-86
2023/01/29 11:06:13;;;;;;;8.60;7.30;;;;;;;;;;4953590;28;20703;-86
2023/01/29 11:08:44;;;;;;;7.90;7.10;;;;;;;;;;4954893;29;20213;-87
2023/01/29 11:11:13;;;;;;;8.20;7.40;;;;;;;;;;4954026;28;20245;-87
2023/01/29 11:13:45;;;;;;;8.83;7.03;;;;;;;;;;5047256;28;20236;-87
2023/01/29 11:16:13;;;;;;;7.67;6.67;;;;;;;;;;5003509;28;20226;-86
2023/01/29 11:18:56;;;;;;;7.60;6.90;;;;;;;;;;4954420;28;20213;-89
2023/01/29 11:21:29;;;;;;;10.40;8.37;;;;;;;;;;4953853;28;20712;-89
2023/01/29 11:24:16;;;;;;;7.30;6.17;;;;;;;;;;5052323;28;20288;-84
2023/01/29 11:26:44;;;;;;;10.03;8.40;;;;;;;;;;5055515;28;20328;-85
2023/01/29 11:29:33;;;;;;;9.87;8.10;;;;;;;;;;5055383;28;20539;-85
2023/01/29 11:32:01;;;;;;;8.17;7.00;;;;;;;;;;5054710;28;20187;-85
2023/01/29 11:34:28;;;;;;;9.50;7.10;;;;;;;;;;5053619;28;20234;-85
2023/01/29 11:36:58;;;;;;;8.33;7.17;;;;;;;;;;5055521;28;20202;-87
2023/01/29 11:39:51;;;;;;;10.03;8.17;;;;;;;;;;4971678;28;20282;-87
2023/01/29 11:42:28;;;;;;;10.40;8.50;;;;;;;;;;4973258;28;20232;-89
2023/01/29 11:44:58;;;;;;;8.50;7.60;;;;;;;;;;4973273;28;20241;-88
2023/01/29 11:47:29;;;;;;;8.43;7.57;;;;;;;;;;4973457;28;20224;-88
2023/01/29 11:49:57;;;;;;;12.70;8.87;;;;;;;;;;4973594;28;20237;-89
2023/01/29 11:52:28;;;;;;;3.87;3.57;;;;;;;;;;4991949;28;20198;-87
2023/01/29 11:54:57;;;;;;;8.27;7.37;;;;;;;;;;5057079;28;20234;-88
2023/01/29 11:57:42;;;;;;;8.93;7.67;;;;;;;;;;5057604;28;20210;-88
2023/01/29 12:00:18;;;;;;;8.37;6.97;;;;;;;;;;5059100;28;20241;-88
2023/01/29 12:02:46;;;;;;;10.37;8.57;;;;;;;;;;5059305;28;20611;-87
2023/01/29 12:05:15;;;;;;;9.27;8.07;;;;;;;;;;5058879;28;20233;-88
2023/01/29 12:07:48;;;;;;;7.33;6.60;;;;;;;;;;5058856;28;20234;-88
2023/01/29 12:10:39;;;;;;;9.37;8.43;;;;;;;;;;5059157;28;20291;-87
2023/01/29 12:13:07;;;;;;;9.37;7.93;;;;;;;;;;5044385;28;20252;-88
2023/01/29 12:15:34;;;;;;;8.20;7.33;;;;;;;;;;5058316;28;20237;-88
2023/01/29 12:18:05;;;;;;;8.23;7.17;;;;;;;;;;5057759;28;20205;-88
2023/01/29 12:20:35;;;;;;;8.60;7.67;;;;;;;;;;5055349;28;20234;-87
2023/01/29 12:23:07;;;;;;;7.37;5.97;;;;;;;;;;5055552;28;20233;-88
2023/01/29 12:25:41;;;;;;;9.33;8.07;;;;;;;;;;5055972;28;20237;-88
2023/01/29 12:28:09;;;;;;;10.53;8.17;;;;;;;;;;5057202;28;20551;-88
2023/01/29 12:30:40;;;;;;;10.40;8.63;;;;;;;;;;5056790;28;20317;-89
2023/01/29 12:33:13;;;;;;;10.17;8.20;;;;;;;;;;4957287;28;20238;-89
2023/01/29 12:35:43;;;;;;;9.77;7.83;;;;;;;;;;5029738;28;20244;-86
2023/01/29 12:38:16;;;;;;;10.50;9.00;;;;;;;;;;5057375;28;20219;-90
2023/01/29 12:40:44;;;;;;;11.40;9.07;;;;;;;;;;5055911;28;20254;-90
2023/01/29 12:43:15;;;;;;;9.47;8.13;;;;;;;;;;5056637;28;20872;-91
2023/01/29 12:45:44;;;;;;;9.60;8.60;;;;;;;;;;5057018;28;20258;-90
2023/01/29 12:48:13;;;;;;;10.93;8.50;;;;;;;;;;5056203;28;20206;-90
2023/01/29 12:50:42;;;;;;;7.40;6.60;;;;;;;;;;5003583;28;20232;-90
2023/01/29 12:53:15;;;;;;;8.13;7.17;;;;;;;;;;4966482;28;20237;-90
2023/01/29 12:55:46;;;;;;;7.83;7.03;;;;;;;;;;5032165;28;20236;-91
2023/01/29 12:58:16;;;;;;;12.00;9.00;;;;;;;;;;4958106;28;20216;-91
2023/01/29 13:00:44;;;;;;;9.07;8.07;;;;;;;;;;4958800;28;20241;-91
2023/01/29 13:06:00;;;;;;;10.53;7.97;;;;;;;;;;5038932;28;20229;-91
2023/01/29 13:08:30;;;;;;;10.47;8.90;;;;;;;;;;5058031;28;20693;-91
2023/01/29 13:11:00;;;;;;;10.17;8.27;;;;;;;;;;5056478;28;20657;-92
2023/01/29 13:13:31;;;;;;;11.87;8.73;;;;;;;;;;4988051;28;20286;-91
2023/01/29 13:15:59;;;;;;;10.73;8.23;;;;;;;;;;5029377;28;20262;-90
2023/01/29 13:18:37;;;;;;;9.37;6.80;;;;;;;;;;5058123;28;20654;-89
2023/01/29 13:21:05;;;;;;;10.90;7.93;;;;;;;;;;5057861;28;20251;-89
2023/01/29 13:23:35;;;;;;;9.67;7.87;;;;;;;;;;5062724;28;20313;-90
2023/01/29 13:26:04;;;;;;;15.57;10.50;;;;;;;;;;5060644;28;20233;-90
2023/01/29 13:28:32;;;;;;;9.63;7.03;;;;;;;;;;5061582;28;20265;-91
2023/01/29 13:31:13;;;;;;;8.97;7.50;;;;;;;;;;5061718;28;20238;-89
2023/01/29 13:33:41;;;;;;;10.17;8.17;;;;;;;;;;5062398;28;20253;-90
2023/01/29 13:36:15;;;;;;;9.50;7.17;;;;;;;;;;5059670;28;20237;-87
2023/01/29 13:38:44;;;;;;;9.30;8.13;;;;;;;;;;5061282;28;20226;-92
2023/01/29 13:41:14;;;;;;;10.73;8.20;;;;;;;;;;5063876;28;20234;-92
2023/01/29 13:43:42;;;;;;;10.07;7.67;;;;;;;;;;5063784;28;20224;-92
2023/01/29 13:46:10;;;;;;;9.17;8.23;;;;;;;;;;5062601;28;20252;-91
2023/01/29 13:48:41;;;;;;;10.60;8.90;;;;;;;;;;5063854;28;20213;-91
2023/01/29 13:51:14;;;;;;;10.57;8.27;;;;;;;;;;5063354;28;20229;-93
2023/01/29 13:53:42;;;;;;;12.07;8.87;;;;;;;;;;5064423;28;20228;-92
2023/01/29 13:56:29;;;;;;;10.53;8.17;;;;;;;;;;5062686;28;20239;-91
2023/01/29 13:58:58;;;;;;;9.87;7.80;;;;;;;;;;4942248;28;20213;-90
2023/01/29 14:01:43;;;;;;;9.90;7.10;;;;;;;;;;4942872;29;20206;-92
2023/01/29 14:04:24;;;;;;;9.30;7.80;;;;;;;;;;4943523;28;20226;-92
2023/01/29 14:06:52;;;;;;;8.83;7.93;;;;;;;;;;5045701;28;20221;-91
2023/01/29 14:09:33;;;;;;;10.50;7.50;;;;;;;;;;5054308;28;20237;-88
2023/01/29 14:12:00;;;;;;;7.00;5.57;;;;;;;;;;4956998;29;20224;-86
2023/01/29 14:14:46;;;;;;;10.27;7.47;;;;;;;;;;4958628;28;20241;-89
2023/01/29 14:17:14;;;;;;;7.97;7.13;;;;;;;;;;5058285;28;20266;-90
2023/01/29 14:19:47;;;;;;;8.70;6.43;;;;;;;;;;5064826;28;20237;-88
2023/01/29 14:22:19;;;;;;;8.77;7.77;;;;;;;;;;5055246;28;20182;-87
2023/01/29 14:24:46;;;;;;;8.03;6.73;;;;;;;;;;5059393;28;20235;-90
2023/01/29 14:27:20;;;;;;;13.00;8.27;;;;;;;;;;5062251;28;20230;-90
2023/01/29 14:29:47;;;;;;;9.00;7.23;;;;;;;;;;5062767;28;20231;-90
2023/01/29 14:32:19;;;;;;;8.77;5.87;;;;;;;;;;5056255;28;20232;-88
2023/01/29 14:34:48;;;;;;;9.30;8.30;;;;;;;;;;5041293;22;20570;-89
2023/01/29 14:37:21;;;;;;;9.97;8.23;;;;;;;;;;5009030;28;20204;-89
2023/01/29 14:39:49;;;;;;;11.17;8.17;;;;;;;;;;5010786;28;20600;-89
2023/01/29 14:42:19;;;;;;;11.27;8.40;;;;;;;;;;5009724;28;20194;-88
2023/01/29 14:44:56;;;;;;;12.60;8.70;;;;;;;;;;5013378;28;20235;-88
2023/01/29 14:47:46;;;;;;;10.90;8.87;;;;;;;;;;5015084;28;20219;-88
2023/01/29 14:50:33;;;;;;;12.90;9.00;;;;;;;;;;5010788;28;20241;-88
2023/01/29 14:53:03;;;;;;;11.10;8.10;;;;;;;;;;5009793;28;20242;-87
2023/01/29 14:55:36;;;;;;;10.83;8.53;;;;;;;;;;5009810;28;20243;-87
2023/01/29 14:58:04;;;;;;;12.40;8.40;;;;;;;;;;5007270;28;20210;-87
2023/01/29 15:00:34;;;;;;;12.60;8.30;;;;;;;;;;5007654;28;20813;-89
2023/01/29 15:03:03;;;;;;;9.83;8.53;;;;;;;;;;5008761;28;20216;-89
2023/01/29 15:05:36;;;;;;;12.57;8.27;;;;;;;;;;5008195;28;20241;-88
2023/01/29 15:08:08;;;;;;;7.53;6.70;;;;;;;;;;4992530;28;20231;-88
2023/01/29 15:10:39;;;;;;;12.50;8.87;;;;;;;;;;5005529;28;20238;-87
2023/01/29 15:13:10;;;;;;;10.47;8.30;;;;;;;;;;5031941;28;20557;-88
2023/01/29 15:15:38;;;;;;;10.60;8.57;;;;;;;;;;5011246;27;20248;-87
2023/01/29 15:18:08;;;;;;;11.57;9.07;;;;;;;;;;5000513;28;20206;-88
2023/01/29 15:20:36;;;;;;;10.27;8.63;;;;;;;;;;5010693;28;20249;-89